Time;durP1;ratioP1;P1;durP2;ratioP2;P2;SDS_P1;SDS_P2;PMS_P1;PMS_P2;Temp;Humidity;BMP_temperature;BMP_pressure;BME280_temperature;BME280_humidity;BME280_pressure;Samples;Min_cycle;Max_cycle;Signal;HPM_P1;HPM_P2
2023/05/18 00:00:20;;;;;;;5.97;1.95;;;12.80;99.90;;;;;;1887803;75;21274;-82
2023/05/18 00:03:11;;;;;;;2.75;1.85;;;12.80;99.90;;;;;;1891098;75;21346;-84
2023/05/18 00:06:03;;;;;;;2.58;1.70;;;12.80;99.90;;;;;;1896373;75;21052;-84
2023/05/18 00:08:55;;;;;;;4.10;1.60;;;12.80;99.90;;;;;;1870849;75;21095;-83
2023/05/18 00:11:46;;;;;;;2.60;1.70;;;12.70;99.90;;;;;;1893894;75;21648;-83
2023/05/18 00:17:19;;;;;;;3.92;1.92;;;12.70;99.90;;;;;;1931375;72;22173;-82
2023/05/18 00:20:12;;;;;;;3.98;1.80;;;12.60;99.90;;;;;;1892026;75;21680;-82
2023/05/18 00:23:05;;;;;;;3.55;1.70;;;12.60;99.90;;;;;;1839883;77;21112;-82
2023/05/18 00:28:35;;;;;;;5.53;1.60;;;12.60;99.90;;;;;;1937973;72;22284;-85
2023/05/18 00:34:06;;;;;;;3.47;1.35;;;12.50;99.90;;;;;;1959967;72;22216;-83
2023/05/18 00:39:39;;;;;;;3.67;1.52;;;12.50;99.90;;;;;;1932642;72;22193;-82
2023/05/18 00:42:30;;;;;;;3.40;1.70;;;12.50;99.90;;;;;;1878045;74;21115;-83
2023/05/18 00:45:22;;;;;;;4.15;1.92;;;12.60;99.90;;;;;;1897599;75;21686;-82
2023/05/18 00:48:14;;;;;;;2.58;1.52;;;12.60;99.90;;;;;;1883680;75;21074;-83
2023/05/18 00:51:06;;;;;;;3.40;1.55;;;12.50;99.90;;;;;;1884245;75;21552;-83
2023/05/18 00:53:59;;;;;;;3.08;1.47;;;12.50;99.90;;;;;;1874636;75;21572;-83
2023/05/18 00:56:51;;;;;;;4.00;1.20;;;12.50;99.90;;;;;;1878871;75;21082;-83
2023/05/18 01:02:23;;;;;;;3.62;1.50;;;12.50;99.90;;;;;;1950736;72;22237;-82
2023/05/18 01:07:57;;;;;;;4.42;1.57;;;12.50;99.90;;;;;;1923182;72;22747;-83
2023/05/18 01:13:34;;;;;;;2.90;1.42;;;12.60;99.90;;;;;;1963830;72;22625;-83
2023/05/18 01:16:31;;;;;;;3.25;1.30;;;12.60;99.90;;;;;;1929670;73;21646;-82
2023/05/18 01:22:11;;;;;;;3.70;1.45;;;12.50;99.90;;;;;;1930377;72;22216;-82
2023/05/18 01:27:46;;;;;;;2.75;1.57;;;12.50;99.90;;;;;;1946932;72;22223;-82
2023/05/18 01:33:17;;;;;;;2.98;1.30;;;12.50;99.90;;;;;;1941988;72;22792;-82
2023/05/18 01:36:10;;;;;;;3.05;1.42;;;12.40;99.90;;;;;;1896741;75;21200;-84
2023/05/18 01:39:02;;;;;;;2.85;1.27;;;12.40;99.90;;;;;;1894439;75;21055;-84
2023/05/18 01:41:57;;;;;;;3.50;1.25;;;12.40;99.90;;;;;;1904043;75;21090;-84
2023/05/18 01:47:30;;;;;;;5.62;1.57;;;12.40;99.90;;;;;;1951817;72;22118;-82
2023/05/18 01:50:24;;;;;;;4.58;1.25;;;12.40;99.90;;;;;;1839463;76;21135;-83
2023/05/18 01:53:20;;;;;;;2.52;1.70;;;12.40;99.90;;;;;;1897433;75;21191;-83
2023/05/18 01:58:53;;;;;;;5.30;2.98;;;12.30;99.90;;;;;;1944248;72;22227;-85
2023/05/18 02:01:45;;;;;;;3.55;2.10;;;12.40;99.90;;;;;;1894574;75;21147;-83
2023/05/18 02:07:15;;;;;;;7.70;3.80;;;12.20;99.90;;;;;;1942513;72;22207;-83
2023/05/18 02:10:09;;;;;;;6.53;2.42;;;12.20;99.90;;;;;;1884405;75;21402;-83
2023/05/18 02:13:00;;;;;;;3.72;2.30;;;12.20;99.90;;;;;;1868267;75;21123;-85
2023/05/18 02:15:52;;;;;;;6.50;4.53;;;12.30;99.90;;;;;;1895303;75;21572;-83
2023/05/18 02:18:43;;;;;;;6.87;3.52;;;12.30;99.90;;;;;;1891217;75;21121;-84
2023/05/18 02:21:36;;;;;;;6.33;3.90;;;12.30;99.90;;;;;;1880558;75;21083;-84
2023/05/18 02:24:28;;;;;;;8.95;3.90;;;12.30;99.90;;;;;;1877886;75;21660;-84
2023/05/18 02:27:19;;;;;;;4.97;2.90;;;12.30;99.90;;;;;;1873210;75;21066;-84
2023/05/18 02:30:13;;;;;;;4.33;2.62;;;12.30;99.90;;;;;;1882790;75;21091;-84
2023/05/18 02:33:07;;;;;;;4.30;2.70;;;12.20;99.90;;;;;;1865692;75;21204;-83
2023/05/18 02:35:59;;;;;;;4.55;2.10;;;12.20;99.90;;;;;;1894135;75;21095;-83
2023/05/18 02:38:51;;;;;;;5.15;2.20;;;12.20;99.90;;;;;;1876507;75;21202;-83
2023/05/18 02:41:42;;;;;;;3.87;1.70;;;12.20;99.90;;;;;;1887785;75;21190;-83
2023/05/18 02:44:34;;;;;;;4.10;1.98;;;12.20;99.90;;;;;;1876509;75;21161;-83
2023/05/18 02:47:25;;;;;;;2.85;1.77;;;12.10;99.90;;;;;;1889566;75;21114;-82
2023/05/18 02:52:57;;;;;;;5.17;2.25;;;12.20;99.90;;;;;;1936756;72;22165;-82
2023/05/18 02:55:52;;;;;;;3.95;1.87;;;12.20;99.90;;;;;;1907018;74;21154;-84
2023/05/18 02:58:43;;;;;;;2.58;1.70;;;12.20;99.90;;;;;;1900392;74;21107;-84
2023/05/18 03:01:39;;;;;;;2.50;1.22;;;12.20;99.90;;;;;;1903582;74;21199;-83
2023/05/18 03:07:15;;;;;;;3.80;1.72;;;12.20;99.90;;;;;;1945030;72;22265;-82
2023/05/18 03:10:08;;;;;;;2.58;1.50;;;12.10;99.90;;;;;;1886596;75;21113;-85
2023/05/18 03:13:01;;;;;;;3.00;1.32;;;12.00;99.90;;;;;;1885912;75;21069;-83
2023/05/18 03:15:52;;;;;;;5.20;1.90;;;12.00;99.90;;;;;;1896092;75;21087;-83
2023/05/18 03:18:43;;;;;;;2.58;1.50;;;12.00;99.90;;;;;;1887356;75;21123;-84
2023/05/18 03:21:35;;;;;;;4.33;1.75;;;12.10;99.90;;;;;;1891822;75;21495;-83
2023/05/18 03:24:29;;;;;;;3.58;1.62;;;12.10;99.90;;;;;;1903649;75;21119;-83
2023/05/18 03:30:02;;;;;;;3.70;1.60;;;12.10;99.90;;;;;;1947283;72;22272;-83
2023/05/18 03:32:55;;;;;;;3.52;1.40;;;12.10;99.90;;;;;;1906234;74;21121;-83
2023/05/18 03:35:46;;;;;;;2.08;1.45;;;12.10;99.90;;;;;;1905120;74;21109;-83
2023/05/18 03:38:40;;;;;;;2.40;1.67;;;12.10;99.90;;;;;;1924313;74;21130;-83
2023/05/18 03:41:32;;;;;;;2.20;1.30;;;12.10;99.90;;;;;;1904594;74;21139;-83
2023/05/18 03:47:03;;;;;;;3.17;1.40;;;12.00;99.90;;;;;;1948339;72;22178;-83
2023/05/18 03:49:54;;;;;;;3.83;1.50;;;12.00;99.90;;;;;;1887528;75;21162;-84
2023/05/18 03:52:46;;;;;;;3.52;1.40;;;12.00;99.90;;;;;;1894348;75;21179;-84
2023/05/18 03:55:38;;;;;;;3.10;1.82;;;11.80;99.90;;;;;;1904474;75;21106;-84
2023/05/18 03:58:29;;;;;;;4.33;1.52;;;11.70;99.90;;;;;;1908779;75;21118;-83
2023/05/18 04:01:22;;;;;;;2.60;1.77;;;11.80;99.90;;;;;;1889427;74;21173;-84
2023/05/18 04:04:16;;;;;;;2.70;1.60;;;11.80;99.90;;;;;;1892712;75;21043;-83
2023/05/18 04:07:07;;;;;;;5.55;2.08;;;11.80;99.90;;;;;;1891556;75;21093;-83
2023/05/18 04:09:59;;;;;;;4.10;1.62;;;11.60;99.90;;;;;;1890404;75;21137;-85
2023/05/18 04:12:51;;;;;;;3.55;1.60;;;11.60;99.90;;;;;;1884044;75;21195;-83
2023/05/18 04:15:42;;;;;;;2.00;1.20;;;11.60;99.90;;;;;;1893472;75;21086;-83
2023/05/18 04:18:35;;;;;;;3.42;1.60;;;11.50;99.90;;;;;;1889726;75;21094;-83
2023/05/18 04:21:28;;;;;;;2.45;1.52;;;11.50;99.90;;;;;;1910760;75;21144;-84
2023/05/18 04:24:20;;;;;;;2.95;1.40;;;11.50;99.90;;;;;;1896731;75;21234;-83
2023/05/18 04:27:12;;;;;;;2.85;1.30;;;11.50;99.90;;;;;;1884161;76;21113;-84
2023/05/18 04:30:03;;;;;;;2.47;1.50;;;11.50;99.90;;;;;;1906554;75;21105;-83
2023/05/18 04:32:57;;;;;;;3.47;1.55;;;11.50;99.90;;;;;;1899171;75;21099;-83
2023/05/18 04:38:31;;;;;;;3.47;1.37;;;11.60;99.90;;;;;;1953181;72;23164;-83
2023/05/18 04:41:24;;;;;;;3.70;1.55;;;11.60;99.90;;;;;;1900891;75;21113;-83
2023/05/18 04:44:20;;;;;;;2.30;1.30;;;11.50;99.90;;;;;;1907049;75;21180;-83
2023/05/18 04:47:10;;;;;;;2.98;1.60;;;11.50;99.90;;;;;;1888326;75;21543;-85
2023/05/18 04:50:02;;;;;;;4.10;1.60;;;11.50;99.90;;;;;;1892106;75;21106;-84
2023/05/18 04:55:33;;;;;;;2.83;1.37;;;11.40;99.90;;;;;;1937438;72;22118;-83
2023/05/18 05:01:06;;;;;;;3.95;1.50;;;11.30;99.90;;;;;;1943113;72;22258;-84
2023/05/18 05:06:38;;;;;;;1.95;1.50;;;11.10;99.90;;;;;;1940951;72;22265;-85
2023/05/18 05:12:11;;;;;;;3.50;1.92;;;10.90;99.90;;;;;;1946180;72;22254;-85
2023/05/18 05:15:03;;;;;;;5.97;1.60;;;10.90;99.90;;;;;;1898549;75;21209;-83
2023/05/18 05:17:54;;;;;;;3.02;1.60;;;10.90;99.90;;;;;;1883444;75;21117;-83
2023/05/18 05:20:45;;;;;;;4.72;2.33;;;11.00;99.90;;;;;;1893854;75;21090;-83
2023/05/18 05:23:40;;;;;;;4.45;1.90;;;11.00;99.90;;;;;;1876429;75;21136;-83
2023/05/18 05:26:32;;;;;;;3.02;1.70;;;11.00;99.90;;;;;;1876898;75;21145;-85
2023/05/18 05:32:08;;;;;;;4.28;2.00;;;10.90;99.90;;;;;;1936440;72;22201;-82
2023/05/18 05:37:38;;;;;;;5.42;2.30;;;10.90;99.90;;;;;;1930434;72;22278;-82
2023/05/18 05:40:30;;;;;;;3.72;2.05;;;10.80;99.90;;;;;;1884320;75;21172;-84
2023/05/18 05:46:02;;;;;;;4.08;2.50;;;10.80;99.90;;;;;;1942444;72;22241;-82
2023/05/18 05:48:54;;;;;;;3.58;2.20;;;10.90;99.90;;;;;;1883910;75;21188;-83
2023/05/18 05:51:48;;;;;;;2.67;1.60;;;11.00;99.90;;;;;;1895379;75;21134;-84
2023/05/18 05:57:23;;;;;;;3.83;1.72;;;11.00;99.90;;;;;;1931368;72;22270;-82
2023/05/18 06:00:17;;;;;;;3.02;2.00;;;11.10;99.90;;;;;;1889610;75;21599;-83
2023/05/18 06:03:10;;;;;;;7.00;2.70;;;11.00;99.90;;;;;;1883109;75;21645;-83
2023/05/18 06:06:03;;;;;;;3.62;2.02;;;11.10;99.90;;;;;;1896212;75;21056;-83
2023/05/18 06:08:55;;;;;;;5.17;1.98;;;11.10;99.90;;;;;;1888518;75;21152;-83
2023/05/18 06:11:47;;;;;;;4.17;2.20;;;11.20;99.90;;;;;;1882957;75;21611;-83
2023/05/18 06:17:19;;;;;;;4.00;2.02;;;11.10;99.90;;;;;;1907318;72;22148;-82
2023/05/18 06:20:13;;;;;;;5.05;1.98;;;11.10;99.90;;;;;;1889208;75;21143;-84
2023/05/18 06:23:05;;;;;;;3.77;2.10;;;11.10;99.90;;;;;;1883055;75;21071;-84
2023/05/18 06:26:14;;;;;;;4.28;2.02;;;11.10;99.90;;;;;;1881938;75;21182;-83
2023/05/18 06:29:10;;;;;;;2.95;2.22;;;11.10;99.90;;;;;;1889474;75;21110;-83
2023/05/18 06:32:20;;;;;;;3.80;2.12;;;11.10;99.90;;;;;;1884577;75;21083;-83
2023/05/18 06:35:13;;;;;;;4.15;2.15;;;11.20;99.90;;;;;;1878143;75;21164;-83
2023/05/18 06:38:05;;;;;;;4.90;2.58;;;11.20;99.90;;;;;;1892800;75;21507;-83
2023/05/18 06:40:56;;;;;;;4.80;2.42;;;11.10;99.90;;;;;;1874533;75;21144;-83
2023/05/18 06:43:48;;;;;;;3.37;2.15;;;11.30;99.90;;;;;;1886606;75;21153;-83
2023/05/18 06:46:48;;;;;;;4.65;2.50;;;11.30;99.90;;;;;;1902684;75;21095;-83
2023/05/18 06:49:44;;;;;;;4.75;2.50;;;11.30;99.90;;;;;;1894386;75;21052;-83
2023/05/18 06:52:39;;;;;;;4.55;2.50;;;11.40;99.90;;;;;;1881736;75;21164;-83
2023/05/18 06:55:30;;;;;;;4.80;2.40;;;11.30;99.90;;;;;;1876696;75;21150;-83
2023/05/18 06:58:22;;;;;;;3.62;2.30;;;11.40;99.90;;;;;;1898890;75;21088;-83
2023/05/18 07:01:16;;;;;;;4.10;2.42;;;11.50;99.90;;;;;;1893683;75;21101;-83
2023/05/18 07:04:08;;;;;;;5.33;2.40;;;11.50;99.90;;;;;;1871815;75;21690;-83
2023/05/18 07:07:00;;;;;;;5.30;2.83;;;11.60;99.90;;;;;;1899600;75;21080;-83
2023/05/18 07:09:53;;;;;;;3.00;2.25;;;11.60;99.90;;;;;;1887566;75;21124;-83
2023/05/18 07:12:44;;;;;;;3.62;2.25;;;11.70;99.90;;;;;;1872911;75;21045;-83
2023/05/18 07:15:35;;;;;;;5.47;2.62;;;11.60;99.90;;;;;;1887490;75;21202;-84
2023/05/18 07:18:27;;;;;;;5.00;3.12;;;11.70;99.90;;;;;;1890129;75;21124;-84
2023/05/18 07:21:19;;;;;;;3.75;2.27;;;11.60;99.90;;;;;;1884585;75;21201;-84
2023/05/18 07:24:10;;;;;;;4.47;2.15;;;11.50;99.90;;;;;;1875495;75;21106;-84
2023/05/18 07:29:41;;;;;;;3.77;2.25;;;11.50;99.90;;;;;;1946964;72;22189;-82
2023/05/18 07:32:32;;;;;;;5.50;2.77;;;11.60;99.90;;;;;;1894519;74;21108;-83
2023/05/18 07:38:03;;;;;;;3.58;2.20;;;11.60;99.90;;;;;;1926556;72;22198;-83
2023/05/18 07:40:55;;;;;;;4.45;2.52;;;11.70;99.90;;;;;;1890826;75;21060;-83
2023/05/18 07:43:46;;;;;;;5.62;2.90;;;11.80;99.90;;;;;;1884959;76;21152;-84
2023/05/18 07:46:38;;;;;;;5.47;2.98;;;11.80;99.90;;;;;;1902933;75;21124;-83
2023/05/18 07:52:11;;;;;;;3.87;2.85;;;12.00;99.90;;;;;;1955276;72;22323;-82
2023/05/18 07:57:46;;;;;;;3.42;2.45;;;11.90;99.90;;;;;;1924941;72;22224;-84
2023/05/18 08:00:38;;;;;;;4.67;2.83;;;11.90;99.90;;;;;;1892650;73;21179;-84
2023/05/18 08:03:29;;;;;;;3.70;2.50;;;12.10;99.90;;;;;;1926935;74;21138;-84
2023/05/18 08:09:00;;;;;;;5.90;2.60;;;12.30;99.90;;;;;;1947738;72;22627;-82
2023/05/18 08:11:53;;;;;;;4.55;2.52;;;12.40;99.90;;;;;;1897084;75;21117;-82
2023/05/18 08:17:23;;;;;;;4.80;2.60;;;12.50;99.90;;;;;;1926016;72;22316;-82
2023/05/18 08:20:16;;;;;;;5.58;2.50;;;12.50;99.90;;;;;;1879135;75;21731;-83
2023/05/18 08:23:07;;;;;;;5.72;2.65;;;12.40;99.90;;;;;;1902142;74;21113;-84
2023/05/18 08:25:59;;;;;;;6.17;2.75;;;12.50;99.90;;;;;;1917954;74;21099;-83
2023/05/18 08:31:28;;;;;;;3.50;2.58;;;12.60;99.90;;;;;;1941548;72;22258;-82
2023/05/18 08:37:00;;;;;;;3.70;2.65;;;12.60;99.90;;;;;;1948651;72;22266;-82
2023/05/18 08:42:39;;;;;;;4.17;2.77;;;12.50;99.90;;;;;;1908568;72;27993;-85
2023/05/18 08:45:35;;;;;;;4.00;2.75;;;12.50;99.90;;;;;;1878214;75;21208;-83
2023/05/18 08:48:29;;;;;;;4.45;2.85;;;12.30;99.90;;;;;;1874725;75;21641;-83
2023/05/18 08:51:22;;;;;;;6.65;3.58;;;12.30;99.90;;;;;;1886734;75;21118;-83
2023/05/18 08:56:57;;;;;;;4.28;3.12;;;12.30;99.90;;;;;;1950364;72;22347;-84
2023/05/18 08:59:52;;;;;;;4.75;3.25;;;12.40;99.90;;;;;;1930173;73;21098;-84
2023/05/18 09:02:43;;;;;;;5.75;2.70;;;12.20;99.90;;;;;;1916643;75;21114;-84
2023/05/18 09:05:36;;;;;;;7.37;3.00;;;12.40;99.90;;;;;;1925401;73;21223;-84
2023/05/18 09:08:28;;;;;;;4.28;2.85;;;12.50;99.90;;;;;;1926785;73;21099;-83
2023/05/18 09:11:20;;;;;;;6.83;2.87;;;12.60;99.90;;;;;;1941816;73;21035;-83
2023/05/18 09:14:12;;;;;;;6.17;3.20;;;12.60;99.90;;;;;;1916360;73;21104;-83
2023/05/18 09:17:04;;;;;;;4.67;3.30;;;12.80;99.90;;;;;;1926678;73;21027;-82
2023/05/18 09:19:55;;;;;;;5.90;3.00;;;12.80;99.90;;;;;;1920538;73;21124;-82
2023/05/18 09:22:50;;;;;;;4.80;3.10;;;12.90;99.90;;;;;;1915640;73;21747;-82
2023/05/18 09:28:33;;;;;;;5.28;2.80;;;12.90;99.90;;;;;;1936752;72;22830;-84
2023/05/18 09:34:07;;;;;;;3.80;2.80;;;12.80;99.90;;;;;;1957948;72;22241;-83
2023/05/18 09:36:59;;;;;;;5.75;3.50;;;12.70;99.90;;;;;;1909329;74;21173;-83
2023/05/18 09:40:01;;;;;;;5.83;3.22;;;12.70;99.90;;;;;;1905218;74;21098;-84
2023/05/18 09:42:54;;;;;;;3.85;2.55;;;12.90;99.90;;;;;;1906168;74;21196;-83
2023/05/18 09:48:26;;;;;;;6.80;3.08;;;12.90;99.90;;;;;;1947663;72;22160;-84
2023/05/18 09:51:20;;;;;;;5.95;3.12;;;13.20;99.90;;;;;;1916302;74;21207;-84
2023/05/18 09:54:11;;;;;;;4.90;3.00;;;13.30;99.90;;;;;;1904538;74;21696;-83
2023/05/18 09:57:04;;;;;;;6.65;3.02;;;13.60;99.90;;;;;;1905993;74;21149;-83
2023/05/18 10:02:41;;;;;;;5.42;3.02;;;13.80;99.90;;;;;;1934061;72;22203;-83
2023/05/18 10:08:13;;;;;;;4.92;2.80;;;13.60;99.90;;;;;;1937733;72;22244;-82
2023/05/18 10:13:52;;;;;;;4.58;2.58;;;13.40;99.90;;;;;;1926909;72;22612;-82
2023/05/18 10:16:45;;;;;;;4.33;2.70;;;13.40;99.90;;;;;;1910652;75;21172;-83
2023/05/18 10:25:13;;;;;;;5.45;2.62;;;13.50;99.90;;;;;;1942427;72;22170;-84
2023/05/18 10:30:47;;;;;;;3.58;2.70;;;13.60;99.90;;;;;;1954860;72;22297;-84
2023/05/18 10:33:40;;;;;;;3.70;2.10;;;13.70;99.90;;;;;;1925788;73;21137;-83
2023/05/18 10:39:13;;;;;;;3.00;2.15;;;13.70;99.90;;;;;;1933237;72;22557;-83
2023/05/18 10:42:08;;;;;;;6.65;2.30;;;13.80;99.90;;;;;;1890831;75;21162;-85
2023/05/18 10:45:00;;;;;;;4.65;2.75;;;13.80;99.90;;;;;;1887040;75;21080;-84
2023/05/18 10:47:53;;;;;;;3.12;2.00;;;13.90;99.90;;;;;;1886765;75;21167;-83
2023/05/18 10:50:47;;;;;;;3.95;2.00;;;13.90;99.90;;;;;;1903491;75;21502;-83
2023/05/18 10:53:42;;;;;;;3.92;1.90;;;13.90;99.90;;;;;;1901763;75;21094;-83
2023/05/18 10:56:34;;;;;;;3.87;2.47;;;13.80;99.90;;;;;;1899303;75;21114;-82
2023/05/18 11:02:05;;;;;;;4.12;1.90;;;13.80;99.90;;;;;;1931870;72;22756;-84
2023/05/18 11:04:57;;;;;;;3.87;2.00;;;13.80;99.90;;;;;;1894784;75;21267;-83
2023/05/18 11:07:48;;;;;;;4.45;2.27;;;13.90;99.90;;;;;;1886759;75;21094;-83
2023/05/18 11:10:45;;;;;;;3.85;2.35;;;13.90;99.90;;;;;;1874491;75;21093;-83
2023/05/18 11:13:38;;;;;;;4.17;2.52;;;13.90;99.90;;;;;;1873315;75;21157;-83
2023/05/18 11:19:13;;;;;;;3.12;2.00;;;14.00;99.90;;;;;;1972322;72;22189;-82
2023/05/18 11:22:12;;;;;;;5.10;2.27;;;14.00;99.90;;;;;;1944280;73;21086;-83
2023/05/18 11:25:08;;;;;;;6.30;2.60;;;14.00;99.90;;;;;;1920306;73;21106;-83
2023/05/18 11:28:02;;;;;;;3.25;2.00;;;14.00;99.90;;;;;;1933829;73;21114;-83
2023/05/18 11:30:53;;;;;;;4.12;2.10;;;14.10;99.90;;;;;;1917264;73;21559;-83
2023/05/18 11:33:45;;;;;;;4.10;2.37;;;14.10;99.90;;;;;;1924123;73;21578;-83
2023/05/18 11:39:17;;;;;;;3.60;2.40;;;14.30;99.90;;;;;;1944175;72;22385;-82
2023/05/18 11:42:10;;;;;;;5.92;3.00;;;14.40;99.90;;;;;;1894855;75;21463;-84
2023/05/18 11:45:07;;;;;;;5.80;3.72;;;14.50;99.90;;;;;;1894252;75;21102;-83
2023/05/18 11:48:01;;;;;;;5.47;3.45;;;14.70;99.90;;;;;;1883907;76;21518;-83
2023/05/18 11:50:56;;;;;;;4.40;3.10;;;14.80;99.90;;;;;;1892993;75;21135;-83
2023/05/18 11:53:48;;;;;;;5.30;3.30;;;14.90;99.90;;;;;;1903643;75;21650;-83
2023/05/18 11:56:41;;;;;;;5.33;3.37;;;14.90;99.90;;;;;;1891980;75;21063;-83
2023/05/18 11:59:35;;;;;;;5.60;3.33;;;14.60;99.90;;;;;;1894781;75;21578;-83
2023/05/18 12:02:28;;;;;;;6.80;3.83;;;14.50;99.90;;;;;;1892108;75;21142;-83
2023/05/18 12:05:21;;;;;;;6.95;3.62;;;14.60;99.90;;;;;;1890680;75;21118;-83
2023/05/18 12:08:13;;;;;;;6.78;3.55;;;14.70;99.90;;;;;;1902431;75;21200;-83
2023/05/18 12:11:05;;;;;;;5.50;3.75;;;14.70;99.90;;;;;;1915034;75;21063;-83
2023/05/18 12:13:57;;;;;;;6.22;3.40;;;14.70;99.90;;;;;;1909945;75;21090;-83
2023/05/18 12:16:50;;;;;;;5.95;3.75;;;14.60;99.90;;;;;;1898216;75;21143;-83
2023/05/18 12:22:24;;;;;;;4.75;3.22;;;14.40;99.90;;;;;;1945426;72;22145;-82
2023/05/18 12:27:57;;;;;;;5.60;3.60;;;14.40;99.90;;;;;;1937774;72;23611;-84
2023/05/18 12:30:49;;;;;;;4.47;3.77;;;14.40;99.90;;;;;;1871895;75;21098;-84
2023/05/18 12:33:42;;;;;;;6.58;3.27;;;14.60;99.90;;;;;;1888198;75;21133;-83
2023/05/18 12:39:15;;;;;;;4.53;3.15;;;14.50;99.90;;;;;;1960411;72;22275;-82
2023/05/18 12:42:18;;;;;;;6.78;3.52;;;14.70;99.90;;;;;;1921962;73;21102;-82
2023/05/18 12:45:11;;;;;;;5.40;3.67;;;14.90;99.90;;;;;;1926615;74;21348;-83
2023/05/18 12:48:07;;;;;;;6.00;2.95;;;14.80;99.90;;;;;;1927112;74;21077;-83
2023/05/18 12:50:58;;;;;;;4.83;3.50;;;14.80;99.90;;;;;;1902883;73;21162;-82
2023/05/18 12:53:50;;;;;;;4.97;3.52;;;14.90;99.90;;;;;;1915740;74;21108;-83
2023/05/18 12:59:32;;;;;;;5.95;3.80;;;15.20;99.90;;;;;;1928439;72;22246;-82
2023/05/18 13:02:32;;;;;;;5.75;3.40;;;15.10;99.90;;;;;;1906861;73;21106;-85
2023/05/18 13:05:28;;;;;;;6.20;3.80;;;15.00;99.90;;;;;;1910224;74;21106;-83
2023/05/18 13:11:03;;;;;;;7.25;4.35;;;15.10;99.90;;;;;;1937176;72;22137;-82
2023/05/18 13:16:40;;;;;;;5.25;3.80;;;15.20;99.90;;;;;;1939981;72;22302;-82
2023/05/18 13:19:34;;;;;;;7.20;4.22;;;15.10;99.90;;;;;;1890874;75;21139;-82
2023/05/18 13:22:25;;;;;;;4.92;3.33;;;15.20;99.90;;;;;;1891559;75;21125;-85
2023/05/18 13:25:17;;;;;;;6.40;4.40;;;15.10;99.90;;;;;;1895445;75;21167;-84
2023/05/18 13:28:10;;;;;;;7.25;5.10;;;15.00;99.90;;;;;;1887192;75;21191;-83
2023/05/18 13:33:41;;;;;;;8.55;4.53;;;14.90;99.90;;;;;;1930150;72;22755;-84
2023/05/18 13:39:12;;;;;;;5.00;4.00;;;14.90;99.90;;;;;;1952682;72;22303;-82
2023/05/18 13:42:03;;;;;;;6.33;4.03;;;15.00;99.90;;;;;;1916636;73;21114;-84
2023/05/18 13:44:55;;;;;;;6.35;4.30;;;15.10;99.90;;;;;;1915891;73;21105;-83
2023/05/18 13:47:49;;;;;;;6.87;4.08;;;15.00;99.90;;;;;;1925686;73;21075;-84
2023/05/18 13:50:39;;;;;;;6.92;4.80;;;15.10;99.90;;;;;;1925732;73;21103;-84
2023/05/18 13:53:31;;;;;;;6.67;4.28;;;15.00;99.90;;;;;;1916717;75;21075;-83
2023/05/18 13:56:23;;;;;;;5.72;4.30;;;15.00;99.90;;;;;;1917834;73;21102;-83
2023/05/18 13:59:15;;;;;;;6.87;4.47;;;15.00;99.90;;;;;;1916863;75;21354;-83
2023/05/18 14:02:07;;;;;;;6.17;4.37;;;15.10;99.90;;;;;;1917671;73;21118;-85
2023/05/18 14:04:58;;;;;;;6.53;4.37;;;15.00;99.90;;;;;;1916827;75;21130;-83
2023/05/18 14:07:51;;;;;;;6.60;4.90;;;14.90;99.90;;;;;;1917001;75;21167;-83
2023/05/18 14:10:54;;;;;;;7.22;3.92;;;15.00;99.90;;;;;;1916730;75;21140;-83
2023/05/18 14:13:46;;;;;;;5.47;3.98;;;15.10;99.90;;;;;;1916919;75;21194;-82
2023/05/18 14:16:37;;;;;;;6.35;4.15;;;15.20;99.90;;;;;;1931044;73;21567;-82
2023/05/18 14:19:29;;;;;;;7.42;4.05;;;15.30;99.90;;;;;;1922911;73;21545;-83
2023/05/18 14:22:20;;;;;;;5.75;4.12;;;15.40;99.90;;;;;;1916721;74;21099;-83
2023/05/18 14:25:12;;;;;;;5.83;4.10;;;15.50;99.90;;;;;;1916728;75;21148;-83
2023/05/18 14:28:03;;;;;;;5.33;4.28;;;15.60;99.90;;;;;;1873962;76;21149;-83
2023/05/18 14:30:55;;;;;;;4.50;3.27;;;15.50;99.90;;;;;;1930614;73;21179;-82
2023/05/18 14:33:48;;;;;;;4.67;3.40;;;15.60;99.90;;;;;;1917085;75;21094;-83
2023/05/18 14:36:39;;;;;;;5.87;3.83;;;15.60;99.90;;;;;;1925375;73;21516;-83
2023/05/18 14:39:30;;;;;;;4.92;4.10;;;15.60;99.90;;;;;;1916827;74;21086;-83
2023/05/18 14:42:22;;;;;;;4.62;3.60;;;15.50;99.90;;;;;;1917022;75;21113;-83
2023/05/18 14:45:13;;;;;;;6.45;4.30;;;15.50;99.90;;;;;;1916739;75;21539;-84
2023/05/18 14:48:05;;;;;;;6.35;4.10;;;15.50;99.90;;;;;;1916612;75;21104;-82
2023/05/18 14:50:57;;;;;;;5.22;3.85;;;15.50;99.90;;;;;;1911592;74;21840;-83
2023/05/18 14:53:49;;;;;;;5.12;3.65;;;15.40;99.90;;;;;;1916011;75;21515;-83
2023/05/18 14:56:40;;;;;;;5.25;3.87;;;15.30;99.90;;;;;;1916034;75;21059;-83
2023/05/18 14:59:34;;;;;;;5.30;3.92;;;15.10;99.90;;;;;;1924660;73;21110;-83
2023/05/18 15:02:25;;;;;;;5.62;3.52;;;15.00;99.90;;;;;;1916117;75;21156;-82
2023/05/18 15:05:17;;;;;;;6.60;4.00;;;14.90;99.90;;;;;;1939037;73;21142;-83
2023/05/18 15:08:13;;;;;;;6.37;4.08;;;14.90;99.90;;;;;;1916316;75;21627;-84
2023/05/18 15:11:06;;;;;;;5.58;3.60;;;14.80;99.90;;;;;;1903762;75;21176;-83
2023/05/18 15:13:58;;;;;;;5.53;3.45;;;14.80;99.90;;;;;;1856493;77;21127;-83
2023/05/18 15:16:49;;;;;;;5.20;4.00;;;14.70;99.90;;;;;;1856935;77;21114;-83
2023/05/18 15:22:26;;;;;;;5.35;3.27;;;14.70;99.90;;;;;;1938297;72;22628;-82
2023/05/18 15:25:17;;;;;;;6.53;3.87;;;14.60;99.90;;;;;;1884241;74;21144;-83
2023/05/18 15:28:10;;;;;;;5.00;3.50;;;14.60;99.90;;;;;;1880046;75;21112;-83
2023/05/18 15:31:01;;;;;;;6.00;3.90;;;14.60;99.90;;;;;;1879620;75;21064;-83
2023/05/18 15:33:53;;;;;;;7.17;4.10;;;14.60;99.90;;;;;;1884337;75;21160;-83
2023/05/18 15:36:45;;;;;;;5.20;3.77;;;14.60;99.90;;;;;;1883254;75;21188;-83
2023/05/18 15:39:37;;;;;;;4.95;3.55;;;14.60;99.90;;;;;;1876358;75;21057;-83
2023/05/18 15:42:29;;;;;;;4.25;3.22;;;14.50;99.90;;;;;;1873431;75;21646;-83
2023/05/18 15:45:20;;;;;;;7.58;4.10;;;14.40;99.90;;;;;;1882768;75;21233;-83
2023/05/18 15:48:12;;;;;;;6.92;3.80;;;14.30;99.90;;;;;;1882578;75;21111;-83
2023/05/18 15:51:04;;;;;;;7.30;3.55;;;14.30;99.90;;;;;;1889082;75;21441;-83
2023/05/18 15:53:55;;;;;;;5.75;3.70;;;14.20;99.90;;;;;;1883607;75;21114;-83
2023/05/18 15:56:47;;;;;;;4.15;3.37;;;14.20;99.90;;;;;;1882269;75;21695;-83
2023/05/18 15:59:38;;;;;;;5.90;4.00;;;14.10;99.90;;;;;;1893769;75;21115;-83
2023/05/18 16:02:29;;;;;;;5.20;3.85;;;14.20;99.90;;;;;;1879148;75;21106;-83
2023/05/18 16:05:21;;;;;;;7.70;3.92;;;14.10;99.90;;;;;;1883064;75;21538;-84
2023/05/18 16:08:13;;;;;;;5.70;3.70;;;14.20;99.90;;;;;;1896983;75;21082;-83
2023/05/18 16:11:06;;;;;;;5.40;3.67;;;14.10;99.90;;;;;;1884199;75;21477;-83
2023/05/18 16:13:59;;;;;;;7.55;4.08;;;14.10;99.90;;;;;;1880232;75;21798;-83
2023/05/18 16:16:51;;;;;;;5.87;3.45;;;14.20;99.90;;;;;;1875986;75;21151;-83
2023/05/18 16:19:42;;;;;;;6.05;3.72;;;14.20;99.90;;;;;;1884587;75;21138;-83
2023/05/18 16:22:34;;;;;;;5.45;3.45;;;14.20;99.90;;;;;;1876126;75;21116;-83
2023/05/18 16:25:25;;;;;;;5.85;3.60;;;14.30;99.90;;;;;;1887476;75;21094;-83
2023/05/18 16:28:17;;;;;;;6.28;3.17;;;14.40;99.90;;;;;;1894913;75;21117;-83
2023/05/18 16:31:10;;;;;;;5.42;3.27;;;14.40;99.90;;;;;;1891180;75;21627;-83
2023/05/18 16:34:03;;;;;;;5.45;3.25;;;14.40;99.90;;;;;;1884633;75;21316;-83
2023/05/18 16:36:55;;;;;;;8.08;3.80;;;14.50;99.90;;;;;;1887774;75;21115;-83
2023/05/18 16:42:25;;;;;;;6.70;3.65;;;14.50;99.90;;;;;;1930255;72;22208;-82
2023/05/18 16:45:17;;;;;;;3.87;3.17;;;14.60;99.90;;;;;;1877413;73;21055;-82
2023/05/18 16:48:10;;;;;;;4.30;3.10;;;14.60;99.90;;;;;;1882722;75;21107;-83
2023/05/18 16:51:05;;;;;;;4.60;3.20;;;14.60;99.90;;;;;;1896825;75;21109;-83
2023/05/18 16:53:54;;;;;;;4.90;3.40;;;14.70;99.90;;;;;;1886030;75;21171;-83
2023/05/18 16:56:45;;;;;;;5.62;3.27;;;14.70;99.90;;;;;;1896008;75;21246;-83
2023/05/18 16:59:37;;;;;;;6.67;3.62;;;14.70;99.90;;;;;;1886725;75;21121;-83
2023/05/18 17:02:28;;;;;;;5.80;3.42;;;14.70;99.90;;;;;;1879241;75;21582;-83
2023/05/18 17:05:21;;;;;;;4.45;2.72;;;14.70;99.90;;;;;;1894700;75;21164;-84
2023/05/18 17:08:15;;;;;;;4.87;3.10;;;14.80;99.90;;;;;;1879762;75;21159;-83
2023/05/18 17:11:06;;;;;;;6.03;3.72;;;14.80;99.90;;;;;;1892518;75;21586;-84
2023/05/18 17:14:00;;;;;;;4.08;3.12;;;14.80;99.90;;;;;;1887294;75;21217;-83
2023/05/18 17:16:51;;;;;;;4.10;3.30;;;14.70;99.90;;;;;;1882172;75;21102;-83
2023/05/18 17:19:44;;;;;;;5.75;3.33;;;14.80;99.90;;;;;;1879661;75;21192;-83
2023/05/18 17:22:36;;;;;;;4.97;3.25;;;14.70;99.90;;;;;;1884759;75;21150;-83
2023/05/18 17:25:27;;;;;;;3.98;2.98;;;14.70;99.90;;;;;;1896827;75;21115;-83
2023/05/18 17:28:19;;;;;;;6.50;3.12;;;14.70;99.90;;;;;;1883013;75;21233;-83
2023/05/18 17:31:11;;;;;;;3.80;2.87;;;14.60;99.90;;;;;;1887830;75;21121;-83
2023/05/18 17:34:05;;;;;;;3.85;2.45;;;14.70;99.90;;;;;;1880104;75;21215;-83
2023/05/18 17:36:57;;;;;;;4.60;2.70;;;14.70;99.90;;;;;;1890032;75;21628;-82
2023/05/18 17:39:49;;;;;;;4.70;2.95;;;14.70;99.90;;;;;;1882973;75;21218;-83